createdAt,value
2016-03-19T00:01:20.582Z,1014.51
2016-03-19T00:04:37.559Z,1014.49
2016-03-19T00:07:46.050Z,1014.45
2016-03-19T00:10:50.216Z,1014.55
2016-03-19T00:14:01.099Z,1014.55
2016-03-19T00:17:11.138Z,1014.49
2016-03-19T00:20:24.305Z,1014.49
2016-03-19T00:23:39.188Z,1014.45
2016-03-19T00:26:43.368Z,1014.49
2016-03-19T00:29:56.517Z,1014.49
2016-03-19T00:33:08.728Z,1014.57
2016-03-19T00:36:23.020Z,1014.53
2016-03-19T00:39:39.919Z,1014.43
2016-03-19T00:42:44.239Z,1014.43
2016-03-19T00:45:57.420Z,1014.53
2016-03-19T00:49:06.802Z,1014.33
2016-03-19T00:52:18.170Z,1014.41
2016-03-19T00:55:28.509Z,1014.29
2016-03-19T00:58:45.626Z,1014.31
2016-03-19T01:01:50.103Z,1014.31
2016-03-19T01:04:59.877Z,1014.21
2016-03-19T01:08:12.479Z,1014.17
2016-03-19T01:11:25.624Z,1014.21
2016-03-19T01:14:42.239Z,1013.99
2016-03-19T01:17:46.503Z,1014.07
2016-03-19T01:20:59.538Z,1013.91
2016-03-19T01:24:12.872Z,1013.93
2016-03-19T01:27:25.943Z,1014.13
2016-03-19T01:30:43.140Z,1014.11
2016-03-19T01:33:47.569Z,1013.97
2016-03-19T01:37:00.547Z,1013.97
2016-03-19T01:40:13.835Z,1013.93
2016-03-19T01:43:26.986Z,1013.87
2016-03-19T01:46:44.135Z,1014.01
2016-03-19T01:49:48.565Z,1014.07
2016-03-19T01:53:01.433Z,1014.01
2016-03-19T01:56:14.565Z,1013.97
2016-03-19T01:59:27.499Z,1014.07
2016-03-19T02:02:44.616Z,1014.07
2016-03-19T02:05:48.875Z,1014.03
2016-03-19T02:09:01.883Z,1014.01
2016-03-19T02:12:13.094Z,1013.97
2016-03-19T02:15:26.183Z,1013.93
2016-03-19T02:18:41.440Z,1013.93
2016-03-19T02:21:45.713Z,1014.01
2016-03-19T02:24:55.409Z,1013.97
2016-03-19T02:28:08.434Z,1013.95
2016-03-19T02:31:21.472Z,1013.97
2016-03-19T02:34:38.593Z,1014.11
2016-03-19T02:37:46.881Z,1014.01
2016-03-19T02:40:51.014Z,1014.03
2016-03-19T02:44:01.695Z,1014.01
2016-03-19T02:47:14.735Z,1014.05
2016-03-19T02:50:24.542Z,1014.11
2016-03-19T02:53:38.924Z,1014.01
2016-03-19T02:56:46.167Z,1014.15
2016-03-19T02:59:50.362Z,1014.11
2016-03-19T03:03:03.184Z,1014.01
2016-03-19T03:06:16.239Z,1014.07
2016-03-19T03:09:27.296Z,1014.09
2016-03-19T03:12:44.258Z,1013.97
2016-03-19T03:15:48.530Z,1014.09
2016-03-19T03:19:01.398Z,1014.09
2016-03-19T03:22:11.984Z,1014.21
2016-03-19T03:25:23.055Z,1013.91
2016-03-19T03:28:40.690Z,1013.99
2016-03-19T03:31:44.559Z,1013.93
2016-03-19T03:34:56.004Z,1013.97
2016-03-19T03:38:06.700Z,1014.05
2016-03-19T03:41:19.942Z,1014.13
2016-03-19T03:44:32.593Z,1014.23
2016-03-19T03:47:45.366Z,1014.13
2016-03-19T03:50:58.407Z,1014.25
2016-03-19T03:54:11.321Z,1014.23
2016-03-19T03:57:24.207Z,1014.25
2016-03-19T04:00:40.979Z,1014.13
2016-03-19T04:03:45.112Z,1014.07
2016-03-19T04:06:55.683Z,1014.23
2016-03-19T04:10:06.426Z,1014.19
2016-03-19T04:13:16.824Z,1014.27
2016-03-19T04:16:29.617Z,1014.27
2016-03-19T04:19:46.610Z,1014.29
2016-03-19T04:22:50.742Z,1014.39
2016-03-19T04:26:01.937Z,1014.27
2016-03-19T04:29:16.180Z,1014.39
2016-03-19T04:32:29.081Z,1014.39
2016-03-19T04:35:45.387Z,1014.31
2016-03-19T04:38:49.426Z,1014.43
2016-03-19T04:41:58.683Z,1014.41
2016-03-19T04:45:11.067Z,1014.41
2016-03-19T04:48:24.122Z,1014.47
2016-03-19T04:51:39.039Z,1014.49
2016-03-19T04:54:47.079Z,1014.47
2016-03-19T04:57:51.133Z,1014.57
2016-03-19T05:01:04.251Z,1014.39
2016-03-19T05:04:17.181Z,1014.43
2016-03-19T05:07:29.831Z,1014.49
2016-03-19T05:10:46.622Z,1014.41
2016-03-19T05:13:50.661Z,1014.45
2016-03-19T05:17:00.716Z,1014.51
2016-03-19T05:20:12.098Z,1014.59
2016-03-19T05:23:21.654Z,1014.69
2016-03-19T05:26:38.226Z,1014.57
2016-03-19T05:29:46.188Z,1014.49
2016-03-19T05:32:50.352Z,1014.59
2016-03-19T05:36:03.423Z,1014.57
2016-03-19T05:39:13.712Z,1014.49
2016-03-19T05:42:25.722Z,1014.45
2016-03-19T05:45:42.622Z,1014.45
2016-03-19T05:48:45.802Z,1014.49
2016-03-19T05:51:59.982Z,1014.31
2016-03-19T05:55:10.333Z,1014.51
2016-03-19T05:58:23.373Z,1014.35
2016-03-19T06:01:39.586Z,1014.45
2016-03-19T06:04:43.985Z,1014.35
2016-03-19T06:07:54.618Z,1014.45
2016-03-19T06:11:07.892Z,1014.49
2016-03-19T06:14:19.681Z,1014.61
2016-03-19T06:17:32.880Z,1014.71
2016-03-19T06:20:44.841Z,1014.69
2016-03-19T06:23:57.896Z,1014.69
2016-03-19T06:27:10.919Z,1014.67
2016-03-19T06:30:23.959Z,1014.73
2016-03-19T06:33:39.566Z,1014.71
2016-03-19T06:36:43.918Z,1014.83
2016-03-19T06:39:54.113Z,1014.75
2016-03-19T06:43:04.028Z,1014.87
2016-03-19T06:46:17.176Z,1014.87
2016-03-19T06:49:27.937Z,1014.85
2016-03-19T06:52:45.133Z,1014.98
2016-03-19T06:55:49.500Z,1014.91
2016-03-19T06:59:01.633Z,1014.96
2016-03-19T07:02:14.719Z,1014.91
2016-03-19T07:05:25.290Z,1014.87
2016-03-19T07:08:40.129Z,1014.83
2016-03-19T07:11:44.481Z,1014.87
2016-03-19T07:14:57.817Z,1014.83
2016-03-19T07:18:11.122Z,1014.85
2016-03-19T07:21:24.427Z,1014.83
2016-03-19T07:24:41.672Z,1014.85
2016-03-19T07:27:46.321Z,1014.79
2016-03-19T07:30:59.579Z,1014.73
2016-03-19T07:34:11.180Z,1014.75
2016-03-19T07:37:21.798Z,1014.63
2016-03-19T07:40:38.949Z,1014.53
2016-03-19T07:43:43.661Z,1014.65
2016-03-19T07:46:57.137Z,1014.13
2016-03-19T07:50:09.677Z,1012.92
2016-03-19T07:53:24.700Z,1012.76
2016-03-19T07:56:43.038Z,1012.48
2016-03-19T07:59:50.000Z,1012.36
2016-03-19T08:03:02.915Z,1012.28
2016-03-19T08:06:18.751Z,1011.86
2016-03-19T08:09:33.026Z,1011.8
2016-03-19T08:12:49.442Z,1011.94
2016-03-19T08:16:03.653Z,1013.31
2016-03-19T08:19:16.348Z,1011.88
2016-03-19T08:22:30.375Z,1013.39
2016-03-19T08:25:43.836Z,1013.11
2016-03-19T08:29:00.297Z,1012.06
2016-03-19T08:32:15.743Z,1012.1
2016-03-19T08:35:30.879Z,1013.81
2016-03-19T08:38:44.527Z,1013.93
2016-03-19T08:41:57.176Z,1014.09
2016-03-19T08:45:07.715Z,1014.25
2016-03-19T08:48:18.989Z,1014.37
2016-03-19T08:51:29.186Z,1014.45
2016-03-19T08:54:43.992Z,1014.53
2016-03-19T08:57:48.547Z,1014.57
2016-03-19T09:01:01.555Z,1014.59
2016-03-19T09:04:14.688Z,1014.47
2016-03-19T09:07:25.635Z,1014.61
2016-03-19T09:10:40.832Z,1014.53
2016-03-19T09:13:45.339Z,1014.49
2016-03-19T09:16:56.270Z,1014.43
2016-03-19T09:20:09.622Z,1014.53
2016-03-19T09:23:20.708Z,1014.57
2016-03-19T09:26:37.813Z,1014.55
2016-03-19T09:29:45.930Z,1014.45
2016-03-19T09:32:50.766Z,1014.31
2016-03-19T09:36:04.790Z,1014.15
2016-03-19T09:39:18.720Z,1014.35
2016-03-19T09:42:32.168Z,1014.61
2016-03-19T09:45:46.114Z,1014.53
2016-03-19T09:48:50.637Z,1014.61
2016-03-19T09:52:01.426Z,1014.61
2016-03-19T09:55:11.731Z,1014.65
2016-03-19T09:58:24.333Z,1014.63
2016-03-19T10:01:38.266Z,1014.53
2016-03-19T10:04:46.680Z,1014.47
2016-03-19T10:07:51.141Z,1014.63
2016-03-19T10:11:03.540Z,1014.57
2016-03-19T10:14:13.346Z,1014.63
2016-03-19T10:17:23.355Z,1014.59
2016-03-19T10:20:32.290Z,1014.77
2016-03-19T10:23:46.486Z,1014.67
2016-03-19T10:26:59.409Z,1014.63
2016-03-19T10:30:12.631Z,1014.55
2016-03-19T10:33:26.356Z,1014.45
2016-03-19T10:36:43.662Z,1014.19
2016-03-19T10:39:48.153Z,1014.07
2016-03-19T10:43:01.646Z,1014.07
2016-03-19T10:46:15.186Z,1013.97
2016-03-19T10:49:28.849Z,1013.99
2016-03-19T10:52:46.235Z,1014.05
2016-03-19T10:55:50.635Z,1013.87
2016-03-19T10:59:03.798Z,1013.89
2016-03-19T11:02:16.915Z,1013.95
2016-03-19T11:05:27.158Z,1013.97
2016-03-19T11:08:44.372Z,1014.09
2016-03-19T11:11:48.520Z,1014.07
2016-03-19T11:14:58.341Z,1014.11
2016-03-19T11:18:08.818Z,1014.11
2016-03-19T11:21:22.061Z,1014.05
2016-03-19T11:24:32.446Z,1014.07
2016-03-19T11:27:45.861Z,1014.03
2016-03-19T11:30:58.962Z,1014.03
2016-03-19T11:34:12.095Z,1014.05
2016-03-19T11:37:25.182Z,1013.95
2016-03-19T11:40:42.067Z,1013.91
2016-03-19T11:43:46.497Z,1013.91
2016-03-19T11:46:59.725Z,1013.87
2016-03-19T11:50:12.827Z,1013.77
2016-03-19T11:53:26.085Z,1013.81
2016-03-19T11:56:42.673Z,1013.93
2016-03-19T11:59:46.931Z,1013.79
2016-03-19T12:03:00.080Z,1013.85
2016-03-19T12:06:12.697Z,1013.77
2016-03-19T12:09:25.705Z,1013.79
2016-03-19T12:12:42.576Z,1013.67
2016-03-19T12:15:46.802Z,1013.67
2016-03-19T12:18:56.451Z,1013.69
2016-03-19T12:22:06.052Z,1013.55
2016-03-19T12:25:20.389Z,1013.51
2016-03-19T12:28:30.585Z,1013.49
2016-03-19T12:31:43.642Z,1013.45
2016-03-19T12:34:52.494Z,1013.45
2016-03-19T12:38:06.439Z,1013.39
2016-03-19T12:41:16.901Z,1013.41
2016-03-19T12:44:29.877Z,1013.39
2016-03-19T12:47:46.701Z,1013.39
2016-03-19T12:50:50.866Z,1013.33
2016-03-19T12:54:03.749Z,1013.33
2016-03-19T12:57:13.709Z,1013.37
2016-03-19T13:00:22.935Z,1013.37
2016-03-19T13:03:32.837Z,1013.35
2016-03-19T13:06:45.408Z,1013.33
2016-03-19T13:09:58.384Z,1013.37
2016-03-19T13:13:10.893Z,1013.21
2016-03-19T13:16:22.136Z,1013.29
2016-03-19T13:19:32.021Z,1013.29
2016-03-19T13:22:45.747Z,1013.21
2016-03-19T13:25:49.772Z,1013.23
2016-03-19T13:28:59.717Z,1013.15
2016-03-19T13:32:10.960Z,1013.07
2016-03-19T13:35:23.889Z,1013.09
2016-03-19T13:38:40.790Z,1013.04
2016-03-19T13:41:45.034Z,1013.04
2016-03-19T13:44:55.370Z,1013.07
2016-03-19T13:48:06.455Z,1013.06
2016-03-19T13:51:17.527Z,1013.02
2016-03-19T13:54:27.518Z,1013.06
2016-03-19T13:57:44.513Z,1012.9
2016-03-19T14:00:48.678Z,1012.94
2016-03-19T14:04:01.702Z,1012.86
2016-03-19T14:07:14.710Z,1012.84
2016-03-19T14:10:27.874Z,1012.94
2016-03-19T14:13:44.620Z,1012.92
2016-03-19T14:16:48.690Z,1012.94
2016-03-19T14:20:01.589Z,1012.88
2016-03-19T14:23:12.581Z,1013
2016-03-19T14:26:25.557Z,1012.96
2016-03-19T14:29:39.943Z,1012.76
2016-03-19T14:32:44.123Z,1012.8
2016-03-19T14:35:54.866Z,1012.72
2016-03-19T14:39:07.702Z,1012.74
2016-03-19T14:42:20.351Z,1012.68
2016-03-19T14:45:29.812Z,1012.7
2016-03-19T14:48:46.495Z,1012.76
2016-03-19T14:51:50.550Z,1012.64
2016-03-19T14:55:03.433Z,1012.68
2016-03-19T14:58:14.472Z,1012.64
2016-03-19T15:01:26.652Z,1012.68
2016-03-19T15:04:43.506Z,1012.66
2016-03-19T15:07:47.468Z,1012.6
2016-03-19T15:11:00.132Z,1012.5
2016-03-19T15:14:09.468Z,1012.48
2016-03-19T15:17:22.164Z,1012.36
2016-03-19T15:20:33.266Z,1012.3
2016-03-19T15:23:46.010Z,1012.42
2016-03-19T15:26:58.956Z,1012.26
2016-03-19T15:30:11.871Z,1012.22
2016-03-19T15:33:24.082Z,1012.38
2016-03-19T15:36:38.467Z,1012.36
2016-03-19T15:39:46.382Z,1012.24
2016-03-19T15:42:49.078Z,1012.38
2016-03-19T15:46:03.069Z,1012.32
2016-03-19T15:49:15.640Z,1012.38
2016-03-19T15:52:26.336Z,1012.3
2016-03-19T15:55:42.877Z,1012.38
2016-03-19T15:58:46.792Z,1012.4
2016-03-19T16:01:59.629Z,1012.42
2016-03-19T16:05:11.074Z,1012.42
2016-03-19T16:08:23.723Z,1012.4
2016-03-19T16:11:40.265Z,1012.42
2016-03-19T16:14:44.164Z,1012.42
2016-03-19T16:17:54.812Z,1012.4
2016-03-19T16:21:07.226Z,1012.48
2016-03-19T16:24:17.734Z,1012.4
2016-03-19T16:27:28.242Z,1012.44
2016-03-19T16:30:41.332Z,1012.46
2016-03-19T16:33:45.121Z,1012.38
2016-03-19T16:36:57.566Z,1012.48
2016-03-19T16:40:10.012Z,1012.46
2016-03-19T16:43:18.879Z,1012.52
2016-03-19T16:46:31.137Z,1012.46
2016-03-19T16:49:47.601Z,1012.48
2016-03-19T16:52:51.219Z,1012.42
2016-03-19T16:56:03.102Z,1012.64
2016-03-19T16:59:13.814Z,1012.7
2016-03-19T17:02:26.415Z,1012.62
2016-03-19T17:05:41.379Z,1012.52
2016-03-19T17:08:44.984Z,1012.64
2016-03-19T17:11:57.149Z,1012.7
2016-03-19T17:15:09.375Z,1012.66
2016-03-19T17:18:21.244Z,1012.74
2016-03-19T17:21:33.548Z,1012.76
2016-03-19T17:24:47.496Z,1012.86
2016-03-19T17:27:51.270Z,1012.94
2016-03-19T17:31:01.388Z,1012.9
2016-03-19T17:34:10.661Z,1012.78
2016-03-19T17:37:23.059Z,1012.82
2016-03-19T17:40:32.255Z,1012.68
2016-03-19T17:43:44.391Z,1012.7
2016-03-19T17:46:56.524Z,1012.82
2016-03-19T17:50:08.110Z,1012.72
2016-03-19T17:53:17.744Z,1012.74
2016-03-19T17:56:27.438Z,1012.68
2016-03-19T17:59:43.668Z,1012.88
2016-03-19T18:02:47.098Z,1012.78
2016-03-19T18:05:56.247Z,1012.76
2016-03-19T18:09:06.709Z,1012.68
2016-03-19T18:12:17.013Z,1012.78
2016-03-19T18:15:29.411Z,1012.8
2016-03-19T18:18:45.766Z,1012.74
2016-03-19T18:21:49.493Z,1012.68
2016-03-19T18:25:01.924Z,1012.78
2016-03-19T18:28:14.088Z,1012.72
2016-03-19T18:31:23.079Z,1012.7
2016-03-19T18:34:39.528Z,1012.74
2016-03-19T18:37:47.020Z,1012.82
2016-03-19T18:40:50.434Z,1012.72
2016-03-19T18:44:00.631Z,1012.7
2016-03-19T18:47:09.373Z,1012.64
2016-03-19T18:50:21.193Z,1012.66
2016-03-19T18:53:33.092Z,1012.5
2016-03-19T18:56:46.727Z,1012.58
2016-03-19T18:59:50.190Z,1012.5
2016-03-19T19:03:02.229Z,1012.5
2016-03-19T19:06:12.987Z,1012.46
2016-03-19T19:09:24.705Z,1012.44
2016-03-19T19:12:40.528Z,1012.4
2016-03-19T19:15:47.974Z,1012.46
2016-03-19T19:18:51.420Z,1012.24
2016-03-19T19:22:00.874Z,1012.3
2016-03-19T19:25:11.119Z,1012.24
2016-03-19T19:28:21.701Z,1012.24
2016-03-19T19:31:33.772Z,1012.14
2016-03-19T19:34:45.964Z,1012.12
2016-03-19T19:37:58.281Z,1012.04
2016-03-19T19:41:08.241Z,1012.14
2016-03-19T19:44:20.437Z,1012.08
2016-03-19T19:47:30.256Z,1012.16
2016-03-19T19:50:46.229Z,1012.18
2016-03-19T19:53:49.627Z,1012.2
2016-03-19T19:57:01.932Z,1012.24
2016-03-19T20:00:14.159Z,1012.16
2016-03-19T20:03:26.621Z,1012
2016-03-19T20:06:42.921Z,1011.92
2016-03-19T20:09:46.225Z,1011.92
2016-03-19T20:12:55.343Z,1011.8
2016-03-19T20:16:07.039Z,1011.78
2016-03-19T20:19:19.266Z,1011.84
2016-03-19T20:22:28.837Z,1011.9
2016-03-19T20:25:45.051Z,1011.82
2016-03-19T20:28:48.323Z,1011.94
2016-03-19T20:32:00.504Z,1011.86
2016-03-19T20:35:12.964Z,1011.76
2016-03-19T20:38:24.957Z,1011.86
2016-03-19T20:41:41.186Z,1011.84
2016-03-19T20:44:48.524Z,1011.8
2016-03-19T20:47:51.907Z,1011.68
2016-03-19T20:51:03.524Z,1011.61
2016-03-19T20:54:12.641Z,1011.63
2016-03-19T20:57:25.009Z,1011.57
2016-03-19T21:00:41.112Z,1011.45
2016-03-19T21:03:48.356Z,1011.39
2016-03-19T21:06:51.734Z,1011.47
2016-03-19T21:10:02.717Z,1011.41
2016-03-19T21:13:14.834Z,1011.41
2016-03-19T21:16:26.998Z,1011.43
2016-03-19T21:19:42.850Z,1011.43
2016-03-19T21:22:46.405Z,1011.51
2016-03-19T21:25:57.994Z,1011.55
2016-03-19T21:29:10.086Z,1011.51
2016-03-19T21:32:21.734Z,1011.31
2016-03-19T21:35:33.913Z,1011.37
2016-03-19T21:38:45.704Z,1011.25
2016-03-19T21:41:56.104Z,1011.13
2016-03-19T21:45:08.362Z,1011.21
2016-03-19T21:48:18.980Z,1011.19
2016-03-19T21:51:30.973Z,1011.19
2016-03-19T21:54:47.230Z,1011.17
2016-03-19T21:57:50.522Z,1010.99
2016-03-19T22:00:59.874Z,1011.03
2016-03-19T22:04:11.774Z,1010.99
2016-03-19T22:07:22.578Z,1011.07
2016-03-19T22:10:34.179Z,1010.91
2016-03-19T22:13:46.235Z,1010.95
2016-03-19T22:16:55.995Z,1010.81
2016-03-19T22:20:08.394Z,1010.81
2016-03-19T22:23:19.184Z,1010.81
2016-03-19T22:26:31.301Z,1010.83
2016-03-19T22:29:44.277Z,1010.91
2016-03-19T22:32:47.395Z,1010.89
2016-03-19T22:35:58.094Z,1010.83
2016-03-19T22:39:11.477Z,1010.77
2016-03-19T22:42:23.001Z,1010.73
2016-03-19T22:45:33.868Z,1010.83
2016-03-19T22:48:46.001Z,1010.57
2016-03-19T22:51:57.700Z,1010.61
2016-03-19T22:55:08.786Z,1010.73
2016-03-19T22:58:22.091Z,1010.71
2016-03-19T23:01:34.115Z,1010.71
2016-03-19T23:04:46.311Z,1010.57
2016-03-19T23:07:57.165Z,1010.51
2016-03-19T23:11:09.252Z,1010.75
2016-03-19T23:14:18.775Z,1010.65
2016-03-19T23:17:29.251Z,1010.61
2016-03-19T23:20:45.150Z,1010.53
2016-03-19T23:23:48.345Z,1010.59
2016-03-19T23:26:58.091Z,1010.63
2016-03-19T23:30:10.209Z,1010.67
2016-03-19T23:33:22.388Z,1010.67
2016-03-19T23:36:31.459Z,1010.61
2016-03-19T23:39:45.280Z,1010.67
2016-03-19T23:42:48.460Z,1010.63
2016-03-19T23:45:58.345Z,1010.49
2016-03-19T23:49:10.479Z,1010.49
2016-03-19T23:52:19.127Z,1010.37
2016-03-19T23:55:29.291Z,1010.45
2016-03-19T23:58:42.221Z,1010.47
